Aérodrome :
LOGIN :

S'inscrire | Disclaimer

   EN    FR    IT 

 










Légende :    VFR   VFR Marginal   IFR   IFR Intensif   IFR Très Intensif
Visi : 
Plafond : 
>= 8 km
>= 3000ft
5 à 8 km
1000 à 3000 ft
1500m à 5 km
500 à 1000 ft
800 à 1500m
200 à 500 ft
< 800m
< 200 ft
Symboles :   Orages  Brouillard  Fortes neiges  Fortes précipitations  Vent > 20 kt
SIGMETs :   Divers  Orages  Givrage  Turbulence  Onde Orograph.  Cendres Volcan.






- Altitude de l'aérodrome : -15 ft
- Code IATA : RTM


EHRD - Rotterdam Zestienhoven

DERNIER METAR :
  • 240225Z AUTO VRB01KT 6000 OVC011 03/01 Q1025 BECMG BKN009

METARs EXPIRÉS :
  • 240155Z AUTO VRB01KT 6000 OVC011 03/01 Q1025 BECMG BKN009
  • 240125Z AUTO 13004KT 090V170 6000 OVC011 03/01 Q1025 BECMG 4000 BR
  • 240055Z AUTO 07003KT 040V110 6000 OVC011 03/01 Q1026 BECMG 4000 BR
  • 240025Z AUTO 10004KT 070V130 6000 OVC010 03/01 Q1026 BECMG 4000 BR
  • 232355Z AUTO 12005KT 6000 OVC011 03/01 Q1026 BECMG 4000 BR
  • 232325Z AUTO 10004KT 7000 OVC012 03/01 Q1026 BECMG 4000 BR

TAF TAF EHRD
Valide du 24 à 00h jusqu'au 25 à 06h UTC


232306Z 2400/2506 11005KT 6000 BKN014
BECMG 2400/2403 3000 BR BKN008
PROB30 2401/2409 0400 FG BKN001
PROB40
TEMPO 2403/2409 6000 NSW
BECMG 2409/2412 21006KT 6000 NSW BKN025
BECMG 2412/2414 9000
PROB40 2421/2506 4000 BR



MET'MAP, la Météo Aéronautique d'un coup d'oeil ! - Copyright ORBIFLY Décembre 2007 - Disclaimer

ORBIFLY MET'MAP TEAM :

Programmation & Développement : Alexandra Zaïnal
Sur une idée originale de : Baudouin d'Aumeries
Assistance à la programmation : Marc-Olivier Méhu
Soutien technique & logistique : Manuel Goepfert

Contact : metmap@orbifly.com




SOURCES & CREDITS :

   NOAA